createdAt,value
2023-05-05T00:01:35.576Z,99150.80
2023-05-05T00:04:02.870Z,99152.66
2023-05-05T00:06:30.249Z,99152.09
2023-05-05T00:08:57.251Z,99149.98
2023-05-05T00:11:26.134Z,99144.29
2023-05-05T00:13:53.064Z,99146.65
2023-05-05T00:16:20.419Z,99145.93
2023-05-05T00:18:48.114Z,99141.73
2023-05-05T00:21:15.750Z,99142.06
2023-05-05T00:23:42.761Z,99139.20
2023-05-05T00:26:09.713Z,99135.98
2023-05-05T00:28:38.365Z,99124.09
2023-05-05T00:31:05.744Z,99126.89
2023-05-05T00:33:33.294Z,99122.73
2023-05-05T00:36:00.445Z,99120.48
2023-05-05T00:38:27.461Z,99121.66
2023-05-05T00:40:54.474Z,99122.23
2023-05-05T00:43:21.507Z,99121.92
2023-05-05T00:45:48.515Z,99121.13
2023-05-05T00:48:17.123Z,99120.84
2023-05-05T00:50:45.230Z,99123.86
2023-05-05T00:53:12.288Z,99122.38
2023-05-05T00:55:39.247Z,99120.98
2023-05-05T00:58:06.452Z,99121.05
2023-05-05T01:00:34.310Z,99118.05
2023-05-05T01:03:01.666Z,99116.46
2023-05-05T01:05:41.905Z,99119.50
2023-05-05T01:08:27.765Z,99123.53
2023-05-05T01:10:59.009Z,99120.83
2023-05-05T01:13:39.525Z,99122.72
2023-05-05T01:16:14.300Z,99123.81
2023-05-05T01:18:46.336Z,99123.10
2023-05-05T01:21:15.485Z,99122.84
2023-05-05T01:24:07.974Z,99118.25
2023-05-05T01:26:47.261Z,99120.66
2023-05-05T01:29:20.460Z,99120.44
2023-05-05T01:31:52.025Z,99118.25
2023-05-05T01:34:31.404Z,99119.45
2023-05-05T01:37:07.647Z,99120.36
2023-05-05T01:39:35.080Z,99120.65
2023-05-05T01:42:05.404Z,99119.83
2023-05-05T01:44:33.930Z,99119.03
2023-05-05T01:47:01.067Z,99115.23
2023-05-05T01:49:28.215Z,99116.25
2023-05-05T01:51:56.055Z,99112.69
2023-05-05T01:54:24.425Z,99112.66
2023-05-05T01:56:51.578Z,99118.37
2023-05-05T01:59:18.626Z,99119.42
2023-05-05T02:01:47.313Z,99114.24
2023-05-05T02:04:14.576Z,99111.41
2023-05-05T02:06:42.044Z,99106.15
2023-05-05T02:09:12.873Z,99107.94
2023-05-05T02:11:40.088Z,99106.52
2023-05-05T02:14:07.147Z,99107.96
2023-05-05T02:16:34.297Z,99107.15
2023-05-05T02:19:02.588Z,99104.09
2023-05-05T02:21:29.796Z,99099.17
2023-05-05T02:23:56.819Z,99103.68
2023-05-05T02:26:23.794Z,99101.63
2023-05-05T02:29:02.444Z,99106.91
2023-05-05T02:31:30.248Z,99107.41
2023-05-05T02:33:58.304Z,99104.39
2023-05-05T02:36:27.937Z,99102.39
2023-05-05T02:39:01.292Z,99095.91
2023-05-05T02:41:29.793Z,99092.70
2023-05-05T02:43:57.427Z,99092.75
2023-05-05T02:46:25.515Z,99093.11
2023-05-05T02:48:52.617Z,99089.00
2023-05-05T02:51:19.556Z,99093.27
2023-05-05T02:53:46.631Z,99092.64
2023-05-05T02:56:17.300Z,99094.00
2023-05-05T02:58:53.337Z,99098.19
2023-05-05T03:01:28.124Z,99096.14
2023-05-05T03:04:07.547Z,99097.46
2023-05-05T03:06:40.814Z,99099.73
2023-05-05T03:09:16.135Z,99103.16
2023-05-05T03:12:05.603Z,99101.01
2023-05-05T03:14:42.691Z,99105.04
2023-05-05T03:17:11.941Z,99104.41
2023-05-05T03:19:43.553Z,99098.88
2023-05-05T03:22:10.660Z,99095.80
2023-05-05T03:24:40.046Z,99099.97
2023-05-05T03:27:08.946Z,99098.76
2023-05-05T03:29:38.001Z,99095.70
2023-05-05T03:32:08.631Z,99102.05
2023-05-05T03:34:37.528Z,99104.09
2023-05-05T03:37:05.143Z,99105.71
2023-05-05T03:39:32.907Z,99103.17
2023-05-05T03:42:00.798Z,99103.59
2023-05-05T03:44:30.709Z,99101.15
2023-05-05T03:46:57.892Z,99102.41
2023-05-05T03:49:25.623Z,99109.08
2023-05-05T03:51:52.557Z,99102.37
2023-05-05T03:54:19.739Z,99101.83
2023-05-05T03:56:46.948Z,99096.42
2023-05-05T03:59:13.950Z,99094.87
2023-05-05T04:01:41.556Z,99098.20
2023-05-05T04:04:09.623Z,99098.27
2023-05-05T04:06:37.065Z,99102.93
2023-05-05T04:09:05.801Z,99098.59
2023-05-05T04:11:32.850Z,99095.84
2023-05-05T04:14:00.740Z,99101.11
2023-05-05T04:16:28.371Z,99100.27
2023-05-05T04:18:56.125Z,99097.45
2023-05-05T04:21:23.226Z,99098.40
2023-05-05T04:23:50.534Z,99105.67
2023-05-05T04:26:17.576Z,99109.15
2023-05-05T04:28:46.070Z,99111.91
2023-05-05T04:31:14.061Z,99114.88
2023-05-05T04:33:41.948Z,99123.53
2023-05-05T04:36:09.089Z,99130.08
2023-05-05T04:38:37.827Z,99131.61
2023-05-05T04:41:06.526Z,99131.52
2023-05-05T04:43:34.397Z,99129.84
2023-05-05T04:46:01.855Z,99137.14
2023-05-05T04:48:30.994Z,99139.89
2023-05-05T04:50:58.053Z,99139.86
2023-05-05T04:53:25.314Z,99139.10
2023-05-05T04:55:52.357Z,99137.62
2023-05-05T04:58:19.356Z,99139.58
2023-05-05T05:00:46.603Z,99142.52
2023-05-05T05:03:13.878Z,99141.45
2023-05-05T05:05:40.867Z,99141.06
2023-05-05T05:08:08.412Z,99143.23
2023-05-05T05:10:36.000Z,99142.16
2023-05-05T05:13:03.739Z,99138.84
2023-05-05T05:15:31.261Z,99140.89
2023-05-05T05:17:58.240Z,99145.52
2023-05-05T05:20:25.250Z,99146.81
2023-05-05T05:22:52.294Z,99150.34
2023-05-05T05:25:19.684Z,99151.15
2023-05-05T05:27:52.302Z,99152.16
2023-05-05T05:30:30.368Z,99152.66
2023-05-05T05:32:57.931Z,99154.39
2023-05-05T05:35:25.796Z,99157.62
2023-05-05T05:37:53.127Z,99158.10
2023-05-05T05:40:20.617Z,99160.50
2023-05-05T05:42:47.580Z,99162.33
2023-05-05T05:45:14.772Z,99166.03
2023-05-05T05:47:42.362Z,99162.95
2023-05-05T05:50:10.236Z,99167.18
2023-05-05T05:52:37.954Z,99167.35
2023-05-05T05:55:06.780Z,99162.08
2023-05-05T05:57:34.558Z,99158.14
2023-05-05T06:00:02.453Z,99156.90
2023-05-05T06:02:39.679Z,99150.59
2023-05-05T06:05:09.337Z,99157.98
2023-05-05T06:07:37.816Z,99153.16
2023-05-05T06:10:22.661Z,99148.66
2023-05-05T06:12:54.017Z,99148.73
2023-05-05T06:15:21.023Z,99147.10
2023-05-05T06:17:48.156Z,99145.53
2023-05-05T06:20:15.362Z,99142.30
2023-05-05T06:22:42.654Z,99138.20
2023-05-05T06:25:10.093Z,99132.50
2023-05-05T06:27:37.951Z,99132.45
2023-05-05T06:30:06.905Z,99127.77
2023-05-05T06:32:34.667Z,99126.26
2023-05-05T06:35:01.624Z,99123.54
2023-05-05T06:37:28.510Z,99121.61
2023-05-05T06:39:56.859Z,99118.28
2023-05-05T06:42:23.792Z,99117.34
2023-05-05T06:44:51.938Z,99115.23
2023-05-05T06:47:18.912Z,99119.10
2023-05-05T06:49:45.864Z,99120.73
2023-05-05T06:52:12.769Z,99116.19
2023-05-05T06:54:39.890Z,99117.59
2023-05-05T06:57:06.825Z,99110.75
2023-05-05T06:59:33.957Z,99115.77
2023-05-05T07:02:01.027Z,99111.45
2023-05-05T07:04:28.232Z,99110.30
2023-05-05T07:06:55.412Z,99111.23
2023-05-05T07:09:22.738Z,99112.74
2023-05-05T07:11:49.773Z,99117.07
2023-05-05T07:14:16.978Z,99120.08
2023-05-05T07:16:44.162Z,99118.06
2023-05-05T07:19:11.213Z,99118.89
2023-05-05T07:21:39.743Z,99116.04
2023-05-05T07:24:07.158Z,99113.11
2023-05-05T07:26:34.460Z,99109.13
2023-05-05T07:29:02.671Z,99108.45
2023-05-05T07:31:29.815Z,99110.09
2023-05-05T07:33:56.801Z,99104.39
2023-05-05T07:36:23.729Z,99105.11
2023-05-05T07:38:50.666Z,99107.87
2023-05-05T07:41:18.549Z,99102.92
2023-05-05T07:43:46.152Z,99104.77
2023-05-05T07:46:13.958Z,99097.50
2023-05-05T07:48:41.828Z,99101.64
2023-05-05T07:51:09.363Z,99102.57
2023-05-05T07:53:37.010Z,99099.62
2023-05-05T07:56:06.413Z,99099.35
2023-05-05T07:58:33.583Z,99101.84
2023-05-05T08:01:01.463Z,99102.68
2023-05-05T08:03:28.711Z,99099.13
2023-05-05T08:05:56.568Z,99095.90
2023-05-05T08:08:27.084Z,99095.73
2023-05-05T08:10:54.565Z,99097.30
2023-05-05T08:13:21.682Z,99096.42
2023-05-05T08:15:48.609Z,99096.98
2023-05-05T08:18:16.039Z,99094.40
2023-05-05T08:20:43.069Z,99099.14
2023-05-05T08:23:09.980Z,99098.42
2023-05-05T08:25:36.972Z,99102.39
2023-05-05T08:28:03.993Z,99101.49
2023-05-05T08:30:31.115Z,99105.48
2023-05-05T08:32:59.168Z,99104.60
2023-05-05T08:35:26.179Z,99105.66
2023-05-05T08:37:53.130Z,99104.17
2023-05-05T08:40:21.137Z,99098.27
2023-05-05T08:42:48.682Z,99096.02
2023-05-05T08:45:16.143Z,99097.05
2023-05-05T08:47:43.946Z,99088.98
2023-05-05T08:50:11.482Z,99082.91
2023-05-05T08:52:40.708Z,99086.42
2023-05-05T08:55:10.647Z,99083.82
2023-05-05T08:57:57.365Z,99083.42
2023-05-05T09:00:24.597Z,99081.39
2023-05-05T09:02:51.897Z,99081.59
2023-05-05T09:05:19.009Z,99079.67
2023-05-05T09:07:47.507Z,99077.48
2023-05-05T09:10:14.557Z,99079.17
2023-05-05T09:12:42.838Z,99074.73
2023-05-05T09:15:11.690Z,99076.00
2023-05-05T09:17:39.256Z,99073.21
2023-05-05T09:20:07.468Z,99072.66
2023-05-05T09:22:38.410Z,99071.67
2023-05-05T09:25:05.610Z,99072.06
2023-05-05T09:27:36.773Z,99068.89
2023-05-05T09:30:05.732Z,99069.42
2023-05-05T09:32:49.009Z,99069.41
2023-05-05T09:35:16.689Z,99067.91
2023-05-05T09:37:43.703Z,99062.96
2023-05-05T09:40:15.757Z,99060.75
2023-05-05T09:42:44.766Z,99057.27
2023-05-05T09:45:17.803Z,99056.12
2023-05-05T09:47:49.091Z,99057.15
2023-05-05T09:50:18.983Z,99055.02
2023-05-05T09:53:02.748Z,99052.04
2023-05-05T09:55:31.378Z,99052.67
2023-05-05T09:58:19.552Z,99049.66
2023-05-05T10:00:46.893Z,99049.49
2023-05-05T10:03:14.019Z,99049.86
2023-05-05T10:05:57.833Z,99048.64
2023-05-05T10:08:26.704Z,99048.74
2023-05-05T10:10:58.505Z,99045.46
2023-05-05T10:13:25.523Z,99043.27
2023-05-05T10:15:56.602Z,99037.03
2023-05-05T10:18:25.794Z,99036.36
2023-05-05T10:21:00.732Z,99033.00
2023-05-05T10:23:33.219Z,99032.17
2023-05-05T10:26:06.226Z,99029.25
2023-05-05T10:28:35.710Z,99025.30
2023-05-05T10:31:07.647Z,99022.85
2023-05-05T10:33:53.368Z,99021.33
2023-05-05T10:36:20.420Z,99023.50
2023-05-05T10:38:47.296Z,99021.69
2023-05-05T10:41:17.305Z,99018.08
2023-05-05T10:43:44.397Z,99021.30
2023-05-05T10:46:11.483Z,99012.87
2023-05-05T10:48:42.817Z,99014.52
2023-05-05T10:51:38.479Z,99005.18
2023-05-05T10:54:39.660Z,99005.27
2023-05-05T10:57:08.203Z,98999.73
2023-05-05T10:59:38.648Z,99004.91
2023-05-05T11:02:26.600Z,98999.91
2023-05-05T11:05:23.465Z,99007.86
2023-05-05T11:07:51.308Z,99003.43
2023-05-05T11:10:23.362Z,99000.45
2023-05-05T11:13:02.098Z,98993.87
2023-05-05T11:15:29.994Z,98995.95
2023-05-05T11:17:58.359Z,98992.27
2023-05-05T11:20:39.798Z,98990.83
2023-05-05T11:23:07.038Z,98987.90
2023-05-05T11:25:38.173Z,98988.27
2023-05-05T11:28:05.911Z,98980.19
2023-05-05T11:30:33.151Z,98985.02
2023-05-05T11:33:23.198Z,98985.55
2023-05-05T11:35:59.360Z,98988.25
2023-05-05T11:38:29.964Z,98984.77
2023-05-05T11:41:02.242Z,98988.02
2023-05-05T11:43:29.613Z,98988.91
2023-05-05T11:46:12.902Z,98985.60
2023-05-05T11:48:50.196Z,98979.66
2023-05-05T11:51:18.078Z,98977.04
2023-05-05T11:53:46.570Z,98975.40
2023-05-05T11:56:19.269Z,98975.05
2023-05-05T11:58:47.167Z,98967.01
2023-05-05T12:01:14.096Z,98963.73
2023-05-05T12:03:41.380Z,98963.20
2023-05-05T12:06:09.551Z,98966.33
2023-05-05T12:08:40.573Z,98961.35
2023-05-05T12:11:08.665Z,98965.73
2023-05-05T12:13:36.208Z,98967.29
2023-05-05T12:16:13.855Z,98969.61
2023-05-05T12:18:42.086Z,98964.70
2023-05-05T12:21:18.776Z,98957.54
2023-05-05T12:23:46.121Z,98952.29
2023-05-05T12:26:33.350Z,98953.88
2023-05-05T12:29:00.888Z,98948.96
2023-05-05T12:31:41.544Z,98951.29
2023-05-05T12:34:09.450Z,98947.48
2023-05-05T12:36:36.801Z,98949.45
2023-05-05T12:39:07.238Z,98945.43
2023-05-05T12:41:34.787Z,98941.70
2023-05-05T12:44:03.107Z,98935.20
2023-05-05T12:46:31.301Z,98938.12
2023-05-05T12:49:06.097Z,98939.36
2023-05-05T12:51:34.292Z,98932.02
2023-05-05T12:54:09.998Z,98930.58
2023-05-05T12:56:41.516Z,98932.81
2023-05-05T12:59:12.574Z,98930.06
2023-05-05T13:01:49.196Z,98929.27
2023-05-05T13:04:16.586Z,98926.44
2023-05-05T13:06:45.163Z,98924.82
2023-05-05T13:09:24.728Z,98921.95
2023-05-05T13:11:53.458Z,98920.64
2023-05-05T13:14:20.614Z,98922.27
2023-05-05T13:16:47.501Z,98922.61
2023-05-05T13:19:14.491Z,98927.05
2023-05-05T13:21:41.909Z,98922.52
2023-05-05T13:24:25.310Z,98917.69
2023-05-05T13:26:56.655Z,98913.63
2023-05-05T13:29:27.265Z,98912.30
2023-05-05T13:31:57.129Z,98906.61
2023-05-05T13:34:24.116Z,98912.88
2023-05-05T13:36:51.012Z,98911.09
2023-05-05T13:39:18.154Z,98907.95
2023-05-05T13:41:45.543Z,98902.06
2023-05-05T13:44:13.983Z,98902.85
2023-05-05T13:46:42.626Z,98899.11
2023-05-05T13:49:09.626Z,98900.19
2023-05-05T13:51:38.376Z,98904.10
2023-05-05T13:54:06.640Z,98903.23
2023-05-05T13:56:34.329Z,98893.15
2023-05-05T13:59:01.761Z,98895.02
2023-05-05T14:01:29.686Z,98896.52
2023-05-05T14:03:57.624Z,98897.73
2023-05-05T14:06:26.038Z,98891.80
2023-05-05T14:08:53.471Z,98892.06
2023-05-05T14:11:20.869Z,98893.92
2023-05-05T14:13:48.221Z,98892.33
2023-05-05T14:16:15.403Z,98890.36
2023-05-05T14:18:42.710Z,98888.44
2023-05-05T14:21:10.071Z,98887.33
2023-05-05T14:23:37.248Z,98883.76
2023-05-05T14:26:06.923Z,98884.48
2023-05-05T14:28:34.351Z,98883.61
2023-05-05T14:31:01.923Z,98884.09
2023-05-05T14:33:28.811Z,98887.75
2023-05-05T14:35:55.912Z,98881.09
2023-05-05T14:38:23.086Z,98880.66
2023-05-05T14:40:50.122Z,98880.16
2023-05-05T14:43:17.087Z,98882.18
2023-05-05T14:45:44.456Z,98881.31
2023-05-05T14:48:12.186Z,98881.83
2023-05-05T14:50:40.766Z,98876.70
2023-05-05T14:53:08.120Z,98875.58
2023-05-05T14:55:35.440Z,98876.43
2023-05-05T14:58:02.310Z,98874.52
2023-05-05T15:00:29.509Z,98874.55
2023-05-05T15:02:56.801Z,98875.16
2023-05-05T15:05:23.822Z,98874.52
2023-05-05T15:07:51.022Z,98872.79
2023-05-05T15:10:19.717Z,98877.95
2023-05-05T15:12:48.938Z,98871.29
2023-05-05T15:15:16.199Z,98873.03
2023-05-05T15:17:43.470Z,98872.30
2023-05-05T15:20:11.270Z,98874.16
2023-05-05T15:22:38.684Z,98874.98
2023-05-05T15:25:09.635Z,98877.09
2023-05-05T15:27:38.127Z,98879.95
2023-05-05T15:30:06.140Z,98879.66
2023-05-05T15:32:34.163Z,98878.30
2023-05-05T15:35:01.199Z,98882.41
2023-05-05T15:37:28.998Z,98880.58
2023-05-05T15:39:56.999Z,98879.98
2023-05-05T15:42:24.512Z,98881.87
2023-05-05T15:44:51.640Z,98884.23
2023-05-05T15:47:18.825Z,98883.45
2023-05-05T15:49:45.894Z,98886.25
2023-05-05T15:52:14.035Z,98882.71
2023-05-05T15:56:58.348Z,98885.39
2023-05-05T15:59:26.150Z,98884.10
2023-05-05T16:01:53.202Z,98885.02
2023-05-05T16:04:20.363Z,98887.10
2023-05-05T16:06:47.468Z,98883.79
2023-05-05T16:09:14.374Z,98883.83
2023-05-05T16:11:41.529Z,98883.38
2023-05-05T16:14:08.495Z,98878.05
2023-05-05T16:16:35.502Z,98883.29
2023-05-05T16:19:02.521Z,98882.55
2023-05-05T16:21:29.717Z,98881.83
2023-05-05T16:23:56.970Z,98883.78
2023-05-05T16:26:23.961Z,98887.90
2023-05-05T16:28:51.447Z,98885.45
2023-05-05T16:31:18.361Z,98888.70
2023-05-05T16:33:45.846Z,98884.80
2023-05-05T16:36:13.269Z,98885.86
2023-05-05T16:38:40.454Z,98886.61
2023-05-05T16:41:07.835Z,98885.34
2023-05-05T16:43:37.305Z,98885.59
2023-05-05T16:46:04.410Z,98887.98
2023-05-05T16:48:31.656Z,98891.41
2023-05-05T16:50:58.884Z,98889.05
2023-05-05T16:53:26.097Z,98889.38
2023-05-05T16:55:53.613Z,98892.34
2023-05-05T16:58:21.291Z,98895.95
2023-05-05T17:00:49.312Z,98900.66
2023-05-05T17:03:17.147Z,98899.17
2023-05-05T17:05:44.664Z,98903.24
2023-05-05T17:08:14.231Z,98906.06
2023-05-05T17:10:42.030Z,98906.31
2023-05-05T17:13:09.848Z,98911.10
2023-05-05T17:15:37.615Z,98915.58
2023-05-05T17:18:05.916Z,98918.55
2023-05-05T17:20:32.950Z,98924.86
2023-05-05T17:23:00.148Z,98924.55
2023-05-05T17:25:27.109Z,98927.39
2023-05-05T17:27:57.423Z,98927.02
2023-05-05T17:30:24.439Z,98928.67
2023-05-05T17:32:51.589Z,98928.77
2023-05-05T17:35:18.596Z,98932.10
2023-05-05T17:37:45.682Z,98934.76
2023-05-05T17:40:12.794Z,98934.27
2023-05-05T17:42:40.633Z,98935.36
2023-05-05T17:45:08.640Z,98939.46
2023-05-05T17:47:37.545Z,98941.52
2023-05-05T17:50:05.318Z,98947.48
2023-05-05T17:52:32.576Z,98951.11
2023-05-05T17:54:59.574Z,98949.23
2023-05-05T17:57:26.762Z,98946.96
2023-05-05T17:59:53.888Z,98948.66
2023-05-05T18:02:21.088Z,98950.61
2023-05-05T18:04:48.523Z,98952.33
2023-05-05T18:07:15.432Z,98958.79
2023-05-05T18:09:42.729Z,98960.85
2023-05-05T18:12:09.925Z,98959.30
2023-05-05T18:14:36.910Z,98959.01
2023-05-05T18:17:05.096Z,98959.73
2023-05-05T18:19:32.589Z,98964.23
2023-05-05T18:21:59.637Z,98967.27
2023-05-05T18:24:27.640Z,98970.45
2023-05-05T18:26:54.731Z,98971.78
2023-05-05T18:29:22.083Z,98972.59
2023-05-05T18:31:52.103Z,98974.92
2023-05-05T18:34:19.460Z,98973.48
2023-05-05T18:36:47.113Z,98979.62
2023-05-05T18:39:14.632Z,98983.89
2023-05-05T18:41:41.607Z,98991.27
2023-05-05T18:44:08.900Z,98989.84
2023-05-05T18:46:37.700Z,98992.70
2023-05-05T18:49:04.848Z,98995.31
2023-05-05T18:51:32.371Z,98995.41
2023-05-05T18:54:00.822Z,99004.84
2023-05-05T18:56:28.037Z,99001.48
2023-05-05T18:58:56.290Z,99003.66
2023-05-05T19:01:26.801Z,99008.61
2023-05-05T19:03:54.212Z,99018.12
2023-05-05T19:06:21.555Z,99019.25
2023-05-05T19:08:48.759Z,99020.98
2023-05-05T19:11:16.096Z,99022.46
2023-05-05T19:13:44.065Z,99027.23
2023-05-05T19:16:11.361Z,99028.91
2023-05-05T19:18:40.536Z,99033.69
2023-05-05T19:21:07.579Z,99032.54
2023-05-05T19:23:36.156Z,99029.95
2023-05-05T19:26:06.031Z,99027.65
2023-05-05T19:28:33.346Z,99029.32
2023-05-05T19:31:00.605Z,99025.35
2023-05-05T19:33:28.738Z,99022.27
2023-05-05T19:35:55.737Z,99025.16
2023-05-05T19:38:23.178Z,99020.34
2023-05-05T19:40:50.508Z,99017.39
2023-05-05T19:43:17.546Z,99019.95
2023-05-05T19:45:44.471Z,99024.73
2023-05-05T19:48:11.733Z,99024.73
2023-05-05T19:50:38.672Z,99030.52
2023-05-05T19:53:06.006Z,99031.52
2023-05-05T19:55:33.305Z,99034.98
2023-05-05T19:58:00.394Z,99039.48
2023-05-05T20:00:27.395Z,99045.77
2023-05-05T20:02:54.542Z,99040.88
2023-05-05T20:05:21.613Z,99040.63
2023-05-05T20:07:50.227Z,99046.41
2023-05-05T20:10:17.935Z,99051.25
2023-05-05T20:12:48.839Z,99049.63
2023-05-05T20:15:19.705Z,99049.23
2023-05-05T20:17:47.209Z,99046.88
2023-05-05T20:20:23.979Z,99046.52
2023-05-05T20:22:51.221Z,99045.08
2023-05-05T20:25:18.258Z,99046.35
2023-05-05T20:27:45.987Z,99045.60
2023-05-05T20:30:13.508Z,99045.60
2023-05-05T20:32:40.967Z,99046.48
2023-05-05T20:35:09.225Z,99046.02
2023-05-05T20:37:37.032Z,99046.27
2023-05-05T20:40:04.219Z,99046.92
2023-05-05T20:42:31.880Z,99044.83
2023-05-05T20:45:01.028Z,99041.41
2023-05-05T20:47:28.696Z,99039.14
2023-05-05T20:49:56.253Z,99041.77
2023-05-05T20:52:23.413Z,99040.52
2023-05-05T20:54:50.522Z,99043.46
2023-05-05T20:57:17.560Z,99051.57
2023-05-05T20:59:44.609Z,99050.46
2023-05-05T21:02:11.666Z,99048.58
2023-05-05T21:04:38.662Z,99058.02
2023-05-05T21:07:05.794Z,99056.81
2023-05-05T21:09:35.399Z,99062.34
2023-05-05T21:12:02.592Z,99063.13
2023-05-05T21:14:30.293Z,99068.48
2023-05-05T21:16:57.325Z,99070.21
2023-05-05T21:19:24.395Z,99070.40
2023-05-05T21:21:51.412Z,99075.64
2023-05-05T21:24:18.562Z,99072.96
2023-05-05T21:26:45.672Z,99077.52
2023-05-05T21:29:12.708Z,99079.39
2023-05-05T21:31:39.839Z,99077.95
2023-05-05T21:34:07.029Z,99079.45
2023-05-05T21:36:34.508Z,99080.89
2023-05-05T21:39:01.815Z,99080.32
2023-05-05T21:41:28.963Z,99082.36
2023-05-05T21:43:56.273Z,99085.14
2023-05-05T21:46:23.462Z,99086.08
2023-05-05T21:48:50.737Z,99085.82
2023-05-05T21:51:17.920Z,99081.77
2023-05-05T21:53:45.075Z,99083.73
2023-05-05T21:56:12.224Z,99073.44
2023-05-05T21:58:41.281Z,99077.73
2023-05-05T22:01:08.500Z,99076.58
2023-05-05T22:03:35.976Z,99077.67
2023-05-05T22:06:02.972Z,99081.02
2023-05-05T22:08:30.729Z,99082.17
2023-05-05T22:10:57.878Z,99081.10
2023-05-05T22:13:25.745Z,99081.48
2023-05-05T22:15:53.072Z,99084.30
2023-05-05T22:18:20.166Z,99074.26
2023-05-05T22:20:47.197Z,99077.98
2023-05-05T22:23:14.253Z,99078.60
2023-05-05T22:25:41.495Z,99078.77
2023-05-05T22:28:08.739Z,99076.77
2023-05-05T22:30:35.806Z,99078.48
2023-05-05T22:33:03.001Z,99080.27
2023-05-05T22:35:30.427Z,99080.04
2023-05-05T22:37:58.037Z,99081.19
2023-05-05T22:40:25.204Z,99079.89
2023-05-05T22:42:53.128Z,99077.81
2023-05-05T22:45:21.356Z,99077.73
2023-05-05T22:47:48.559Z,99077.89
2023-05-05T22:50:15.686Z,99075.82
2023-05-05T22:52:43.006Z,99078.55
2023-05-05T22:55:10.618Z,99075.40
2023-05-05T22:57:37.909Z,99072.65
2023-05-05T23:00:06.173Z,99070.86
2023-05-05T23:02:34.183Z,99072.82
2023-05-05T23:05:01.615Z,99075.23
2023-05-05T23:07:28.887Z,99073.95
2023-05-05T23:09:56.223Z,99072.13
2023-05-05T23:12:23.271Z,99071.20
2023-05-05T23:14:50.526Z,99074.67
2023-05-05T23:17:17.774Z,99074.80
2023-05-05T23:19:47.598Z,99074.59
2023-05-05T23:22:14.813Z,99073.58
2023-05-05T23:24:41.910Z,99070.30
2023-05-05T23:27:08.908Z,99072.13
2023-05-05T23:29:36.187Z,99071.00
2023-05-05T23:32:03.175Z,99069.57
2023-05-05T23:34:30.611Z,99067.65
2023-05-05T23:36:57.842Z,99067.23
2023-05-05T23:39:24.911Z,99064.33
2023-05-05T23:41:51.935Z,99066.84
2023-05-05T23:44:18.969Z,99063.41
2023-05-05T23:46:46.753Z,99065.13
2023-05-05T23:49:13.792Z,99063.85
2023-05-05T23:51:40.730Z,99061.02
2023-05-05T23:54:07.820Z,99054.39
2023-05-05T23:56:35.114Z,99058.67
2023-05-05T23:59:02.178Z,99054.98
